createdAt,value
2022-11-09T00:01:52.583Z,27.00
2022-11-09T00:03:56.861Z,25.57
2022-11-09T00:06:02.146Z,27.30
2022-11-09T00:08:10.403Z,24.70
2022-11-09T00:10:13.388Z,23.87
2022-11-09T00:12:16.738Z,23.70
2022-11-09T00:14:21.982Z,22.97
2022-11-09T00:16:25.687Z,25.90
2022-11-09T00:18:28.843Z,24.93
2022-11-09T00:20:34.501Z,25.27
2022-11-09T00:22:38.063Z,21.60
2022-11-09T00:24:42.399Z,22.13
2022-11-09T00:26:45.200Z,24.77
2022-11-09T00:28:48.207Z,22.40
2022-11-09T00:30:51.089Z,23.53
2022-11-09T00:32:54.118Z,22.20
2022-11-09T00:34:57.626Z,25.30
2022-11-09T00:37:00.432Z,25.33
2022-11-09T00:39:03.280Z,24.50
2022-11-09T00:41:08.250Z,23.83
2022-11-09T00:43:11.189Z,21.77
2022-11-09T00:45:14.583Z,24.80
2022-11-09T00:47:17.483Z,20.57
2022-11-09T00:49:20.865Z,23.20
2022-11-09T00:51:23.849Z,22.43
2022-11-09T00:53:27.922Z,21.60
2022-11-09T00:55:31.110Z,22.40
2022-11-09T00:57:35.348Z,20.47
2022-11-09T00:59:38.432Z,21.67
2022-11-09T01:01:43.608Z,22.20
2022-11-09T01:03:47.352Z,23.30
2022-11-09T01:05:51.700Z,19.23
2022-11-09T01:07:54.922Z,22.17
2022-11-09T01:09:58.475Z,21.67
2022-11-09T01:12:01.771Z,22.13
2022-11-09T01:14:06.482Z,20.27
2022-11-09T01:16:11.113Z,21.40
2022-11-09T01:18:16.505Z,21.47
2022-11-09T01:20:20.958Z,22.67
2022-11-09T01:22:23.782Z,19.70
2022-11-09T01:24:27.095Z,21.73
2022-11-09T01:26:29.975Z,23.23
2022-11-09T01:28:32.798Z,21.67
2022-11-09T01:30:37.920Z,20.47
2022-11-09T01:32:41.251Z,21.77
2022-11-09T01:34:46.108Z,21.07
2022-11-09T01:36:51.198Z,23.20
2022-11-09T01:38:54.095Z,18.83
2022-11-09T01:40:57.284Z,21.30
2022-11-09T01:43:00.944Z,21.03
2022-11-09T01:45:21.223Z,20.13
2022-11-09T01:47:26.020Z,21.83
2022-11-09T01:49:37.694Z,21.53
2022-11-09T01:51:42.890Z,20.87
2022-11-09T01:53:50.076Z,21.33
2022-11-09T01:55:56.683Z,21.20
2022-11-09T01:58:03.395Z,18.33
2022-11-09T02:00:09.093Z,19.60
2022-11-09T02:02:14.632Z,20.33
2022-11-09T02:04:23.814Z,19.47
2022-11-09T02:06:28.027Z,18.87
2022-11-09T02:08:30.864Z,19.87
2022-11-09T02:10:35.195Z,20.60
2022-11-09T02:12:38.561Z,19.97
2022-11-09T02:14:41.183Z,19.30
2022-11-09T02:16:43.812Z,19.70
2022-11-09T02:18:53.179Z,22.73
2022-11-09T02:21:00.975Z,20.07
2022-11-09T02:23:03.665Z,20.23
2022-11-09T02:25:06.977Z,18.60
2022-11-09T02:27:10.801Z,21.77
2022-11-09T02:29:15.767Z,18.83
2022-11-09T02:31:18.417Z,18.53
2022-11-09T02:33:22.689Z,19.83
2022-11-09T02:35:25.861Z,18.60
2022-11-09T02:37:30.793Z,18.17
2022-11-09T02:39:33.465Z,19.83
2022-11-09T02:41:36.321Z,18.77
2022-11-09T02:43:39.281Z,21.80
2022-11-09T02:45:41.953Z,20.80
2022-11-09T02:47:44.629Z,19.37
2022-11-09T02:49:47.275Z,18.87
2022-11-09T02:51:51.515Z,16.87
2022-11-09T02:53:55.504Z,17.80
2022-11-09T02:55:58.109Z,19.17
2022-11-09T02:58:01.695Z,18.37
2022-11-09T03:00:06.243Z,17.10
2022-11-09T03:02:09.655Z,19.33
2022-11-09T03:04:12.288Z,19.23
2022-11-09T03:06:15.157Z,18.17
2022-11-09T03:08:18.885Z,20.77
2022-11-09T03:10:22.805Z,21.93
2022-11-09T03:12:31.503Z,17.87
2022-11-09T03:14:34.375Z,20.77
2022-11-09T03:16:37.887Z,19.53
2022-11-09T03:18:40.590Z,18.17
2022-11-09T03:20:43.273Z,19.87
2022-11-09T03:22:45.936Z,18.63
2022-11-09T03:24:49.048Z,19.10
2022-11-09T03:26:52.989Z,18.77
2022-11-09T03:28:55.674Z,19.00
2022-11-09T03:30:58.337Z,18.70
2022-11-09T03:33:01.440Z,19.07
2022-11-09T03:35:04.099Z,20.00
2022-11-09T03:37:06.746Z,19.20
2022-11-09T03:39:09.443Z,18.50
2022-11-09T03:41:12.533Z,18.20
2022-11-09T03:43:16.606Z,17.30
2022-11-09T03:45:19.364Z,17.33
2022-11-09T03:47:22.038Z,18.57
2022-11-09T03:49:25.126Z,17.57
2022-11-09T03:51:27.804Z,17.23
2022-11-09T03:53:30.416Z,18.60
2022-11-09T03:55:33.078Z,18.17
2022-11-09T03:57:36.182Z,16.80
2022-11-09T03:59:40.143Z,17.77
2022-11-09T04:01:42.930Z,16.30
2022-11-09T04:03:45.583Z,18.03
2022-11-09T04:05:48.574Z,17.90
2022-11-09T04:07:52.208Z,17.10
2022-11-09T04:09:54.844Z,16.07
2022-11-09T04:11:57.518Z,19.67
2022-11-09T04:14:00.582Z,18.23
2022-11-09T04:16:04.599Z,17.10
2022-11-09T04:18:07.297Z,15.83
2022-11-09T04:20:12.945Z,17.87
2022-11-09T04:22:15.896Z,17.10
2022-11-09T04:24:18.541Z,17.10
2022-11-09T04:26:21.240Z,17.50
2022-11-09T04:28:24.844Z,17.83
2022-11-09T04:30:28.901Z,16.27
2022-11-09T04:32:33.385Z,19.20
2022-11-09T04:34:36.106Z,17.03
2022-11-09T04:36:40.171Z,16.30
2022-11-09T04:38:42.914Z,17.83
2022-11-09T04:40:45.592Z,16.00
2022-11-09T04:42:48.264Z,16.13
2022-11-09T04:44:51.506Z,16.23
2022-11-09T04:46:54.220Z,15.47
2022-11-09T04:48:58.195Z,16.30
2022-11-09T04:51:02.270Z,17.83
2022-11-09T04:53:08.129Z,16.50
2022-11-09T04:55:10.876Z,17.97
2022-11-09T04:57:13.499Z,16.47
2022-11-09T04:59:16.152Z,17.23
2022-11-09T05:01:19.246Z,17.43
2022-11-09T05:03:22.442Z,16.17
2022-11-09T05:05:26.636Z,18.40
2022-11-09T05:07:29.286Z,15.67
2022-11-09T05:09:32.433Z,15.80
2022-11-09T05:11:35.350Z,15.90
2022-11-09T05:13:38.019Z,17.40
2022-11-09T05:15:40.903Z,15.60
2022-11-09T05:17:44.172Z,16.97
2022-11-09T05:19:46.819Z,15.77
2022-11-09T05:21:50.813Z,15.93
2022-11-09T05:23:59.879Z,15.80
2022-11-09T05:26:02.512Z,14.70
2022-11-09T05:28:05.217Z,15.33
2022-11-09T05:30:08.991Z,14.70
2022-11-09T05:32:12.018Z,14.03
2022-11-09T05:34:15.108Z,15.40
2022-11-09T05:36:17.920Z,17.53
2022-11-09T05:38:21.920Z,14.67
2022-11-09T05:40:24.966Z,14.87
2022-11-09T05:42:27.612Z,14.90
2022-11-09T05:44:30.677Z,13.43
2022-11-09T05:46:34.193Z,15.63
2022-11-09T05:48:37.339Z,13.17
2022-11-09T05:50:41.161Z,14.03
2022-11-09T05:52:43.851Z,13.63
2022-11-09T05:54:47.821Z,12.80
2022-11-09T05:56:51.893Z,13.53
2022-11-09T05:58:54.564Z,13.60
2022-11-09T06:00:57.260Z,15.47
2022-11-09T06:03:03.214Z,13.60
2022-11-09T06:05:06.583Z,13.17
2022-11-09T06:07:09.335Z,12.90
2022-11-09T06:09:12.145Z,13.47
2022-11-09T06:11:23.045Z,12.30
2022-11-09T06:13:26.959Z,12.30
2022-11-09T06:15:29.807Z,13.73
2022-11-09T06:17:32.554Z,12.27
2022-11-09T06:19:35.708Z,13.17
2022-11-09T06:21:38.450Z,13.00
2022-11-09T06:23:41.089Z,12.30
2022-11-09T06:25:43.788Z,11.30
2022-11-09T06:27:49.255Z,14.20
2022-11-09T06:29:51.932Z,12.00
2022-11-09T06:31:54.667Z,11.43
2022-11-09T06:33:57.364Z,11.50
2022-11-09T06:36:00.110Z,12.60
2022-11-09T06:38:02.770Z,11.90
2022-11-09T06:40:06.117Z,11.40
2022-11-09T06:42:09.389Z,11.33
2022-11-09T06:44:14.588Z,11.53
2022-11-09T06:46:17.630Z,12.07
2022-11-09T06:48:20.414Z,10.53
2022-11-09T06:50:23.498Z,11.03
2022-11-09T06:52:26.205Z,12.00
2022-11-09T06:54:29.192Z,10.63
2022-11-09T06:56:31.865Z,10.90
2022-11-09T06:58:34.974Z,9.70
2022-11-09T07:00:38.997Z,11.63
2022-11-09T07:02:43.004Z,12.13
2022-11-09T07:04:45.662Z,11.80
2022-11-09T07:06:48.683Z,11.87
2022-11-09T07:08:51.376Z,12.03
2022-11-09T07:10:54.038Z,10.40
2022-11-09T07:12:58.024Z,11.20
2022-11-09T07:15:01.011Z,11.83
2022-11-09T07:17:04.986Z,10.80
2022-11-09T07:19:07.592Z,10.83
2022-11-09T07:21:14.372Z,11.17
2022-11-09T07:23:17.816Z,12.17
2022-11-09T07:25:21.077Z,11.23
2022-11-09T07:27:27.901Z,13.10
2022-11-09T07:29:30.923Z,11.70
2022-11-09T07:31:33.938Z,10.87
2022-11-09T07:33:37.853Z,10.83
2022-11-09T07:35:40.521Z,11.43
2022-11-09T07:37:43.202Z,10.53
2022-11-09T07:39:47.322Z,11.40
2022-11-09T07:41:52.992Z,11.30
2022-11-09T07:43:55.627Z,12.73
2022-11-09T07:45:58.341Z,12.67
2022-11-09T07:48:02.413Z,12.23
2022-11-09T07:50:07.051Z,10.80
2022-11-09T07:52:09.765Z,11.20
2022-11-09T07:54:12.424Z,10.80
2022-11-09T07:56:15.500Z,10.73
2022-11-09T07:58:18.153Z,10.90
2022-11-09T08:00:23.824Z,10.17
2022-11-09T08:02:26.866Z,10.53
2022-11-09T08:04:30.212Z,10.47
2022-11-09T08:06:34.425Z,11.70
2022-11-09T08:08:37.188Z,10.47
2022-11-09T08:10:39.961Z,11.10
2022-11-09T08:12:42.986Z,9.67
2022-11-09T08:14:45.621Z,9.83
2022-11-09T08:16:48.338Z,10.17
2022-11-09T08:18:51.040Z,11.53
2022-11-09T08:20:54.194Z,10.67
2022-11-09T08:23:02.546Z,10.30
2022-11-09T08:25:07.012Z,9.37
2022-11-09T08:27:09.766Z,11.40
2022-11-09T08:29:15.618Z,9.40
2022-11-09T08:31:18.280Z,11.03
2022-11-09T08:33:20.959Z,9.73
2022-11-09T08:35:24.565Z,9.83
2022-11-09T08:37:27.597Z,10.27
2022-11-09T08:39:31.595Z,9.43
2022-11-09T08:41:37.474Z,9.93
2022-11-09T08:43:43.221Z,10.77
2022-11-09T08:45:46.343Z,9.50
2022-11-09T08:47:49.067Z,10.30
2022-11-09T08:49:51.703Z,9.47
2022-11-09T08:51:54.786Z,12.00
2022-11-09T08:53:57.488Z,7.90
2022-11-09T08:56:01.513Z,9.53
2022-11-09T08:58:04.515Z,9.80
2022-11-09T09:00:08.492Z,9.10
2022-11-09T09:02:11.303Z,9.27
2022-11-09T09:04:14.085Z,8.67
2022-11-09T09:06:16.788Z,16.03
2022-11-09T09:08:23.225Z,9.97
2022-11-09T09:10:26.364Z,23.77
2022-11-09T09:12:30.358Z,11.53
2022-11-09T09:14:32.987Z,9.50
2022-11-09T09:16:37.138Z,9.53
2022-11-09T09:18:39.823Z,8.77
2022-11-09T09:20:42.788Z,11.87
2022-11-09T09:22:45.409Z,9.50
2022-11-09T09:24:48.467Z,9.70
2022-11-09T09:26:51.112Z,14.93
2022-11-09T09:28:55.055Z,9.37
2022-11-09T09:30:59.612Z,10.57
2022-11-09T09:33:02.800Z,10.33
2022-11-09T09:35:06.044Z,9.97
2022-11-09T09:37:08.678Z,14.00
2022-11-09T09:39:11.321Z,13.00
2022-11-09T09:41:37.187Z,9.90
2022-11-09T09:43:43.493Z,9.20
2022-11-09T09:45:55.864Z,17.27
2022-11-09T09:48:00.367Z,10.40
2022-11-09T09:50:05.327Z,11.23
2022-11-09T09:52:13.468Z,12.63
2022-11-09T09:54:18.296Z,9.70
2022-11-09T09:56:22.905Z,10.73
2022-11-09T09:58:26.847Z,9.43
2022-11-09T10:00:29.479Z,9.53
2022-11-09T10:02:36.412Z,12.43
2022-11-09T10:04:41.200Z,10.83
2022-11-09T10:06:59.030Z,11.00
2022-11-09T10:09:03.598Z,13.93
2022-11-09T10:11:13.793Z,14.87
2022-11-09T10:13:33.113Z,12.97
2022-11-09T10:15:37.643Z,13.03
2022-11-09T10:17:47.879Z,15.13
2022-11-09T10:19:57.623Z,13.67
2022-11-09T10:22:03.365Z,12.70
2022-11-09T10:24:11.596Z,12.47
2022-11-09T10:26:19.000Z,14.53
2022-11-09T10:28:24.625Z,13.10
2022-11-09T10:30:28.946Z,14.03
2022-11-09T10:32:32.563Z,12.60
2022-11-09T10:34:40.182Z,14.30
2022-11-09T10:36:45.100Z,15.10
2022-11-09T10:38:49.672Z,13.87
2022-11-09T10:40:55.336Z,14.83
2022-11-09T10:42:59.562Z,14.17
2022-11-09T10:45:12.057Z,14.17
2022-11-09T10:47:16.660Z,14.10
2022-11-09T10:49:20.618Z,13.37
2022-11-09T10:51:35.861Z,15.27
2022-11-09T10:53:38.538Z,12.27
2022-11-09T10:55:51.046Z,13.60
2022-11-09T10:57:55.567Z,13.80
2022-11-09T10:59:58.575Z,12.87
2022-11-09T11:02:02.524Z,13.23
2022-11-09T11:04:25.554Z,14.53
2022-11-09T11:06:31.483Z,14.30
2022-11-09T11:08:39.454Z,14.07
2022-11-09T11:10:42.098Z,15.10
2022-11-09T11:12:45.296Z,13.00
2022-11-09T11:14:48.053Z,13.50
2022-11-09T11:16:52.861Z,14.80
2022-11-09T11:18:55.872Z,14.80
2022-11-09T11:21:07.206Z,15.00
2022-11-09T11:23:14.063Z,13.67
2022-11-09T11:25:20.551Z,14.40
2022-11-09T11:27:25.027Z,15.17
2022-11-09T11:29:32.459Z,14.87
2022-11-09T11:31:35.104Z,17.20
2022-11-09T11:33:37.752Z,16.50
2022-11-09T11:35:43.018Z,14.50
2022-11-09T11:37:58.105Z,15.03
2022-11-09T11:40:03.145Z,13.90
2022-11-09T11:42:18.967Z,14.60
2022-11-09T11:44:31.426Z,18.13
2022-11-09T11:46:40.319Z,15.00
2022-11-09T11:48:56.696Z,17.50
2022-11-09T11:51:02.071Z,15.77
2022-11-09T11:53:10.749Z,14.03
2022-11-09T11:55:23.279Z,16.70
2022-11-09T11:57:41.970Z,23.23
2022-11-09T11:59:52.297Z,16.37
2022-11-09T12:02:05.041Z,16.53
2022-11-09T12:04:17.612Z,17.30
2022-11-09T12:06:29.552Z,16.67
2022-11-09T12:08:37.771Z,17.93
2022-11-09T12:10:47.378Z,15.60
2022-11-09T12:12:58.965Z,20.80
2022-11-09T12:15:14.889Z,18.60
2022-11-09T12:17:22.092Z,17.47
2022-11-09T12:19:36.062Z,15.57
2022-11-09T12:21:47.324Z,17.97
2022-11-09T12:24:05.350Z,21.20
2022-11-09T12:26:18.981Z,17.20
2022-11-09T12:28:43.146Z,14.97
2022-11-09T12:30:52.273Z,16.50
2022-11-09T12:32:56.208Z,16.80
2022-11-09T12:35:12.985Z,17.67
2022-11-09T12:37:17.688Z,17.37
2022-11-09T12:39:25.553Z,17.33
2022-11-09T12:41:30.671Z,17.27
2022-11-09T12:43:38.277Z,14.57
2022-11-09T12:45:41.895Z,16.63
2022-11-09T12:47:54.596Z,16.83
2022-11-09T12:49:57.813Z,18.77
2022-11-09T12:52:02.451Z,15.30
2022-11-09T12:54:11.342Z,17.87
2022-11-09T12:56:17.303Z,16.90
2022-11-09T12:58:24.205Z,22.37
2022-11-09T13:00:47.997Z,16.73
2022-11-09T13:02:54.534Z,17.97
2022-11-09T13:04:58.385Z,18.00
2022-11-09T13:07:18.147Z,19.00
2022-11-09T13:09:23.624Z,15.90
2022-11-09T13:11:35.001Z,15.40
2022-11-09T13:13:38.103Z,18.00
2022-11-09T13:15:40.897Z,18.57
2022-11-09T13:18:00.711Z,18.23
2022-11-09T13:20:03.336Z,17.37
2022-11-09T13:22:40.827Z,18.27
2022-11-09T13:24:50.945Z,24.00
2022-11-09T13:26:57.110Z,17.80
2022-11-09T13:29:22.365Z,18.47
2022-11-09T13:31:54.711Z,18.70
2022-11-09T13:34:18.253Z,17.67
2022-11-09T13:36:22.883Z,20.50
2022-11-09T13:38:26.117Z,17.70
2022-11-09T13:40:45.676Z,17.50
2022-11-09T13:42:56.826Z,16.90
2022-11-09T13:45:27.209Z,17.30
2022-11-09T13:47:36.734Z,17.37
2022-11-09T13:49:46.625Z,17.63
2022-11-09T13:51:49.338Z,19.10
2022-11-09T13:53:55.543Z,17.50
2022-11-09T13:56:03.102Z,18.37
2022-11-09T13:58:12.048Z,19.70
2022-11-09T14:00:19.620Z,17.70
2022-11-09T14:02:23.894Z,16.63
2022-11-09T14:04:28.174Z,19.67
2022-11-09T14:06:32.520Z,18.20
2022-11-09T14:08:40.749Z,16.50
2022-11-09T14:10:47.927Z,16.97
2022-11-09T14:12:55.802Z,17.40
2022-11-09T14:15:07.670Z,17.90
2022-11-09T14:17:12.284Z,18.50
2022-11-09T14:19:22.395Z,27.00
2022-11-09T14:21:36.126Z,20.97
2022-11-09T14:23:40.971Z,18.90
2022-11-09T14:25:43.688Z,17.53
2022-11-09T14:27:51.796Z,21.03
2022-11-09T14:29:55.555Z,16.77
2022-11-09T14:31:58.249Z,17.23
2022-11-09T14:34:02.019Z,15.73
2022-11-09T14:36:05.784Z,19.00
2022-11-09T14:38:18.341Z,16.50
2022-11-09T14:40:23.920Z,18.30
2022-11-09T14:42:27.257Z,17.93
2022-11-09T14:44:32.282Z,17.87
2022-11-09T14:46:34.915Z,20.57
2022-11-09T14:48:40.844Z,19.07
2022-11-09T14:50:47.490Z,19.33
2022-11-09T14:52:50.924Z,19.03
2022-11-09T14:54:55.984Z,19.57
2022-11-09T14:56:58.674Z,17.47
2022-11-09T14:59:02.245Z,24.37
2022-11-09T15:01:08.726Z,16.93
2022-11-09T15:03:24.306Z,24.57
2022-11-09T15:05:32.883Z,21.93
2022-11-09T15:07:35.698Z,20.17
2022-11-09T15:09:54.000Z,20.17
2022-11-09T15:11:57.936Z,20.47
2022-11-09T15:14:00.902Z,21.90
2022-11-09T15:16:03.570Z,22.17
2022-11-09T15:18:06.607Z,21.27
2022-11-09T15:20:27.281Z,25.20
2022-11-09T15:22:42.139Z,16.80
2022-11-09T15:24:47.444Z,17.80
2022-11-09T15:26:50.836Z,17.23
2022-11-09T15:28:54.825Z,17.40
2022-11-09T15:31:15.543Z,17.43
2022-11-09T15:33:21.283Z,16.43
2022-11-09T15:35:30.243Z,17.40
2022-11-09T15:37:47.442Z,17.80
2022-11-09T15:39:50.112Z,17.80
2022-11-09T15:41:52.783Z,16.27
2022-11-09T15:43:59.250Z,17.43
2022-11-09T15:46:02.003Z,16.20
2022-11-09T15:48:07.700Z,16.43
2022-11-09T15:50:16.673Z,16.77
2022-11-09T15:52:19.406Z,17.57
2022-11-09T15:54:22.127Z,17.23
2022-11-09T15:56:25.517Z,15.13
2022-11-09T15:58:28.430Z,17.00
2022-11-09T16:00:32.436Z,15.47
2022-11-09T16:02:35.085Z,18.40
2022-11-09T16:04:40.082Z,2.50
2022-11-09T16:06:46.506Z,17.20
2022-11-09T16:08:49.799Z,16.00
2022-11-09T16:10:52.461Z,15.80
2022-11-09T16:12:56.039Z,14.80
2022-11-09T16:14:58.987Z,18.63
2022-11-09T16:17:02.943Z,18.00
2022-11-09T16:19:05.625Z,16.53
2022-11-09T16:21:09.355Z,20.27
2022-11-09T16:23:12.288Z,15.60
2022-11-09T16:25:15.203Z,18.20
2022-11-09T16:27:47.827Z,19.20
2022-11-09T16:29:43.491Z,74.27
2022-11-09T16:31:51.832Z,38.27
2022-11-09T16:33:56.454Z,32.80
2022-11-09T16:36:00.680Z,52.23
2022-11-09T16:38:03.507Z,121.60
2022-11-09T16:40:07.437Z,52.50
2022-11-09T16:42:10.999Z,35.33
2022-11-09T16:44:13.908Z,18.70
2022-11-09T16:46:20.441Z,24.10
2022-11-09T16:48:23.343Z,35.53
2022-11-09T16:50:28.388Z,31.33
2022-11-09T16:52:31.213Z,19.73
2022-11-09T16:54:34.371Z,17.00
2022-11-09T16:56:37.022Z,17.30
2022-11-09T16:58:39.650Z,16.60
2022-11-09T17:01:08.747Z,19.30
2022-11-09T17:03:07.649Z,32.73
2022-11-09T17:05:10.404Z,34.10
2022-11-09T17:07:14.397Z,24.53
2022-11-09T17:09:17.581Z,21.73
2022-11-09T17:11:20.494Z,20.70
2022-11-09T17:13:23.161Z,25.90
2022-11-09T17:15:26.068Z,21.57
2022-11-09T17:17:28.815Z,21.97
2022-11-09T17:19:32.139Z,39.73
2022-11-09T17:21:34.807Z,27.77
2022-11-09T17:23:39.232Z,28.00
2022-11-09T17:25:42.912Z,24.43
2022-11-09T17:27:45.611Z,23.80
2022-11-09T17:29:48.463Z,26.33
2022-11-09T17:31:51.819Z,27.70
2022-11-09T17:33:59.831Z,33.03
2022-11-09T17:36:05.420Z,20.20
2022-11-09T17:38:08.321Z,21.00
2022-11-09T17:40:40.660Z,21.50
2022-11-09T17:42:43.328Z,36.10
2022-11-09T17:44:46.063Z,44.60
2022-11-09T17:46:49.166Z,39.80
2022-11-09T17:48:52.246Z,36.13
2022-11-09T17:50:54.923Z,31.87
2022-11-09T17:52:57.857Z,61.13
2022-11-09T17:55:00.486Z,28.33
2022-11-09T17:57:04.953Z,31.53
2022-11-09T17:59:08.011Z,24.80
2022-11-09T18:01:11.590Z,25.23
2022-11-09T18:03:14.288Z,24.47
2022-11-09T18:05:16.934Z,22.43
2022-11-09T18:07:19.818Z,21.17
2022-11-09T18:11:46.902Z,21.93
2022-11-09T18:13:50.890Z,21.03
2022-11-09T18:15:53.512Z,22.10
2022-11-09T18:18:02.569Z,24.87
2022-11-09T18:20:05.951Z,19.60
2022-11-09T18:22:12.479Z,21.77
2022-11-09T18:24:15.671Z,25.03
2022-11-09T18:26:19.727Z,25.00
2022-11-09T18:28:23.022Z,20.77
2022-11-09T18:30:27.085Z,23.80
2022-11-09T18:32:32.459Z,22.83
2022-11-09T18:34:35.139Z,23.23
2022-11-09T18:36:37.837Z,21.40
2022-11-09T18:38:40.523Z,23.13
2022-11-09T18:40:49.523Z,23.60
2022-11-09T18:42:52.183Z,24.63
2022-11-09T18:44:55.032Z,23.70
2022-11-09T18:47:04.810Z,24.23
2022-11-09T18:49:13.884Z,25.50
2022-11-09T18:51:17.098Z,21.23
2022-11-09T18:53:20.556Z,22.73
2022-11-09T18:55:23.868Z,22.57
2022-11-09T18:57:26.575Z,22.43
2022-11-09T18:59:29.203Z,24.80
2022-11-09T19:01:33.386Z,22.20
2022-11-09T19:03:37.349Z,24.83
2022-11-09T19:05:40.426Z,22.30
2022-11-09T19:07:43.112Z,24.20
2022-11-09T19:09:45.621Z,20.97
2022-11-09T19:11:48.565Z,24.37
2022-11-09T19:13:51.206Z,23.53
2022-11-09T19:15:58.156Z,22.70
2022-11-09T19:18:01.715Z,25.40
2022-11-09T19:20:06.224Z,23.53
2022-11-09T19:22:13.849Z,24.00
2022-11-09T19:24:19.218Z,24.00
2022-11-09T19:26:21.885Z,24.53
2022-11-09T19:28:24.527Z,23.97
2022-11-09T19:30:27.179Z,25.67
2022-11-09T19:32:30.133Z,25.90
2022-11-09T19:34:33.071Z,24.23
2022-11-09T19:36:37.016Z,30.20
2022-11-09T19:38:41.846Z,23.60
2022-11-09T19:40:44.938Z,24.07
2022-11-09T19:42:52.948Z,23.80
2022-11-09T19:44:57.792Z,24.30
2022-11-09T19:47:00.424Z,24.03
2022-11-09T19:49:03.689Z,23.13
2022-11-09T19:51:06.724Z,22.20
2022-11-09T19:53:10.660Z,23.53
2022-11-09T19:55:13.285Z,21.73
2022-11-09T19:57:19.496Z,22.77
2022-11-09T19:59:22.675Z,21.70
2022-11-09T20:01:25.912Z,23.07
2022-11-09T20:03:28.553Z,23.80
2022-11-09T20:05:36.570Z,21.90
2022-11-09T20:07:39.210Z,23.20
2022-11-09T20:09:43.119Z,23.83
2022-11-09T20:11:57.014Z,20.40
2022-11-09T20:13:59.661Z,23.10
2022-11-09T20:16:03.191Z,23.10
2022-11-09T20:18:05.916Z,24.70
2022-11-09T20:20:09.968Z,20.67
2022-11-09T20:22:12.635Z,20.63
2022-11-09T20:24:15.311Z,18.90
2022-11-09T20:26:19.616Z,20.70
2022-11-09T20:28:24.051Z,27.00
2022-11-09T20:30:26.791Z,20.60
2022-11-09T20:32:29.476Z,20.00
2022-11-09T20:34:32.429Z,21.97
2022-11-09T20:36:35.715Z,20.90
2022-11-09T20:38:38.358Z,22.50
2022-11-09T20:40:41.358Z,19.73
2022-11-09T20:42:45.328Z,22.03
2022-11-09T20:44:47.962Z,19.97
2022-11-09T20:46:50.611Z,19.67
2022-11-09T20:48:55.292Z,17.63
2022-11-09T20:51:03.909Z,19.73
2022-11-09T20:53:06.650Z,17.87
2022-11-09T20:55:11.304Z,19.20
2022-11-09T20:57:13.973Z,21.07
2022-11-09T20:59:17.934Z,20.73
2022-11-09T21:01:22.057Z,20.20
2022-11-09T21:03:26.896Z,20.67
2022-11-09T21:05:29.600Z,19.73
2022-11-09T21:07:32.286Z,21.40
2022-11-09T21:09:34.978Z,20.90
2022-11-09T21:11:57.945Z,18.87
2022-11-09T21:14:00.643Z,19.30
2022-11-09T21:16:08.331Z,19.23
2022-11-09T21:18:11.629Z,21.20
2022-11-09T21:20:15.468Z,20.23
2022-11-09T21:22:18.109Z,20.20
2022-11-09T21:24:31.713Z,17.67
2022-11-09T21:26:46.743Z,18.80
2022-11-09T21:29:00.316Z,18.50
2022-11-09T21:31:03.146Z,17.23
2022-11-09T21:33:07.194Z,19.43
2022-11-09T21:35:11.233Z,18.50
2022-11-09T21:37:15.541Z,18.37
2022-11-09T21:39:18.189Z,17.43
2022-11-09T21:41:31.863Z,18.60
2022-11-09T21:43:34.542Z,20.67
2022-11-09T21:45:37.170Z,18.30
2022-11-09T21:47:39.816Z,20.13
2022-11-09T21:49:44.500Z,18.23
2022-11-09T21:51:47.655Z,18.23
2022-11-09T21:53:50.359Z,16.90
2022-11-09T21:55:53.360Z,18.00
2022-11-09T21:57:56.437Z,15.27
2022-11-09T21:59:59.143Z,16.43
2022-11-09T22:02:01.825Z,18.00
2022-11-09T22:04:04.519Z,18.17
2022-11-09T22:06:08.597Z,15.83
2022-11-09T22:08:11.293Z,17.93
2022-11-09T22:10:13.895Z,14.87
2022-11-09T22:12:29.627Z,18.73
2022-11-09T22:14:43.290Z,14.00
2022-11-09T22:16:45.943Z,15.20
2022-11-09T22:19:00.054Z,15.20
2022-11-09T22:21:02.739Z,13.80
2022-11-09T22:23:07.357Z,17.43
2022-11-09T22:25:12.840Z,16.10
2022-11-09T22:27:15.857Z,16.10
2022-11-09T22:29:18.628Z,15.23
2022-11-09T22:31:21.249Z,15.60
2022-11-09T22:33:27.304Z,18.00
2022-11-09T22:35:30.714Z,14.37
2022-11-09T22:37:33.352Z,15.87
2022-11-09T22:39:40.702Z,15.80
2022-11-09T22:41:47.099Z,17.13
2022-11-09T22:43:50.187Z,14.70
2022-11-09T22:45:52.861Z,15.10
2022-11-09T22:47:55.662Z,14.53
2022-11-09T22:49:58.273Z,16.47
2022-11-09T22:52:01.350Z,17.07
2022-11-09T22:54:04.675Z,15.23
2022-11-09T22:56:10.084Z,15.97
2022-11-09T22:58:12.704Z,15.37
2022-11-09T23:00:17.236Z,14.90
2022-11-09T23:02:19.894Z,14.10
2022-11-09T23:04:22.702Z,14.10
2022-11-09T23:06:26.096Z,14.50
2022-11-09T23:08:33.081Z,14.60
2022-11-09T23:10:39.421Z,15.13
2022-11-09T23:12:43.492Z,15.47
2022-11-09T23:14:58.959Z,15.57
2022-11-09T23:17:24.914Z,15.33
2022-11-09T23:19:27.890Z,13.33
2022-11-09T23:21:31.250Z,13.30
2022-11-09T23:23:34.903Z,15.10
2022-11-09T23:25:48.837Z,15.07
2022-11-09T23:27:52.941Z,13.80
2022-11-09T23:29:58.996Z,15.60
2022-11-09T23:32:02.379Z,14.17
2022-11-09T23:34:09.886Z,14.47
2022-11-09T23:36:12.963Z,13.67
2022-11-09T23:38:15.655Z,12.53
2022-11-09T23:40:20.453Z,12.27
2022-11-09T23:42:23.166Z,15.10
2022-11-09T23:44:27.102Z,14.97
2022-11-09T23:46:29.852Z,12.80
2022-11-09T23:48:33.373Z,13.70
2022-11-09T23:50:36.024Z,12.50
2022-11-09T23:52:39.053Z,13.67
2022-11-09T23:54:42.139Z,13.53
2022-11-09T23:56:46.950Z,12.60
2022-11-09T23:58:51.727Z,12.93
